Sciota, Pennsylvania
Current Conditions -  °F | °C
As of 5:53 PM on Tuesday 27 Jan 2015 (Local Time) from KMPO Reporting Station
Clear Clear  
Wind Chill: -5°   Ceiling: Unl
Heat Index: 13°   Visibility: 10mi
Dew Point:   Wind: 20mph
Humidity: 65%   Direction: 320°NW
Pressure: 29.65"   Gusts: 32mph
Location:  40.93°N, 75.32°W
Report Text: KMPO 272253Z AUTO 32017G28KT 10SM CLR M11/M16 A2965 RMK AO2 PK WND 34032/2219 SLP073 T11061161
Loading
Personal Weather Stations






























Interactive Weather Map New forecast layout! Learn more

10-Day Weather Forecast

Advertisements
Track Severe Weather on mobile